Time;durP1;ratioP1;P1;durP2;ratioP2;P2;SDS_P1;SDS_P2;PMS_P1;PMS_P2;Temp;Humidity;BMP_temperature;BMP_pressure;BME280_temperature;BME280_humidity;BME280_pressure;Samples;Min_cycle;Max_cycle;Signal;HPM_P1;HPM_P2
2022/01/15 00:01:44;;;;;;;0.40;0.20;;;-0.30;99.90;;;;;;5134908;27;20474;-72
2022/01/15 00:04:10;;;;;;;0.70;0.70;;;-0.40;99.90;;;;;;5134576;27;20387;-74
2022/01/15 00:06:36;;;;;;;0.40;0.20;;;-0.40;99.90;;;;;;5116098;27;20485;-72
2022/01/15 00:09:03;;;;;;;0.40;0.30;;;-0.40;99.90;;;;;;5134532;27;20465;-72
2022/01/15 00:11:29;;;;;;;0.40;0.20;;;-0.40;99.90;;;;;;5133771;27;20489;-71
2022/01/15 00:14:21;;;;;;;0.40;0.20;;;-0.50;99.90;;;;;;5134705;27;20370;-72
2022/01/15 00:16:50;;;;;;;0.40;0.20;;;-0.60;99.90;;;;;;5133678;27;20489;-71
2022/01/15 00:19:18;;;;;;;0.40;0.20;;;-0.60;99.90;;;;;;5134453;27;20458;-74
2022/01/15 00:21:44;;;;;;;0.40;0.20;;;-0.60;99.90;;;;;;5134204;27;20385;-71
2022/01/15 00:24:10;;;;;;;0.40;0.20;;;-0.70;99.90;;;;;;5134585;27;20375;-71
2022/01/15 00:26:36;;;;;;;0.40;0.30;;;-0.60;99.90;;;;;;5133341;27;20883;-72
2022/01/15 00:29:02;;;;;;;0.40;0.40;;;-0.60;99.90;;;;;;5134476;27;20379;-71
2022/01/15 00:31:28;;;;;;;1.50;0.70;;;-0.50;99.90;;;;;;5133596;27;20730;-72
2022/01/15 00:33:54;;;;;;;0.40;0.20;;;-0.50;99.90;;;;;;5134347;27;20363;-72
2022/01/15 00:36:20;;;;;;;0.40;0.20;;;-0.50;99.90;;;;;;5134622;27;20750;-71
2022/01/15 00:38:46;;;;;;;0.40;0.20;;;-0.60;99.90;;;;;;5115088;27;20443;-71
2022/01/15 00:41:12;;;;;;;0.40;0.20;;;-0.60;99.90;;;;;;5134291;27;20868;-71
2022/01/15 00:43:38;;;;;;;0.40;0.20;;;-0.60;99.90;;;;;;5131002;27;20381;-72
2022/01/15 00:46:04;;;;;;;1.40;0.50;;;-0.60;99.90;;;;;;5113684;28;20525;-71
2022/01/15 00:48:30;;;;;;;0.40;0.20;;;-0.60;99.90;;;;;;5113228;28;20376;-71
2022/01/15 00:50:56;;;;;;;0.40;0.20;;;-0.50;99.90;;;;;;5112737;28;21301;-71
2022/01/15 00:53:21;;;;;;;0.40;0.20;;;-0.60;99.90;;;;;;5113495;28;20816;-72
2022/01/15 00:55:47;;;;;;;0.40;0.30;;;-0.50;99.90;;;;;;5094163;28;20435;-72
2022/01/15 00:58:13;;;;;;;0.70;0.50;;;-0.50;99.90;;;;;;5113096;28;20444;-71
2022/01/15 01:00:39;;;;;;;0.40;0.20;;;-0.50;99.90;;;;;;5113020;28;20388;-73
2022/01/15 01:03:05;;;;;;;0.40;0.30;;;-0.50;99.90;;;;;;5112970;28;20369;-72
2022/01/15 01:05:31;;;;;;;0.40;0.20;;;-0.60;99.90;;;;;;5113190;28;20436;-72
2022/01/15 01:07:57;;;;;;;0.40;0.33;;;-0.60;99.90;;;;;;5112246;28;20457;-71
2022/01/15 01:23:29;;;;;;;1.60;0.80;;;-0.70;99.90;;;;;;5112965;28;20455;-71
2022/01/15 01:26:04;;;;;;;0.40;0.20;;;-0.70;99.90;;;;;;5093885;28;20552;-73
2022/01/15 01:28:34;;;;;;;0.70;0.70;;;-0.70;99.90;;;;;;5112815;28;20875;-71
2022/01/15 01:31:29;;;;;;;0.60;0.60;;;-0.80;99.90;;;;;;5111527;28;20861;-72
2022/01/15 01:33:50;;;;;;;0.43;0.38;;;-0.90;99.90;;;;;;5112172;28;20397;-71
2022/01/15 01:36:41;;;;;;;0.40;0.20;;;-0.90;99.90;;;;;;5111537;28;20528;-71
2022/01/15 01:39:14;;;;;;;0.40;0.30;;;-0.80;99.90;;;;;;5093299;28;20396;-72
2022/01/15 01:41:47;;;;;;;0.90;0.90;;;-0.70;99.90;;;;;;5112477;28;20372;-71
2022/01/15 01:44:17;;;;;;;0.40;0.40;;;-0.50;99.90;;;;;;5119042;27;20398;-72
2022/01/15 01:46:52;;;;;;;0.40;0.30;;;-0.50;99.90;;;;;;5133196;27;20374;-71
2022/01/15 01:49:20;;;;;;;0.40;0.20;;;-0.50;99.90;;;;;;5113610;27;20458;-71
2022/01/15 01:51:46;;;;;;;0.40;0.40;;;-0.50;99.90;;;;;;5132511;27;20377;-71
2022/01/15 01:54:16;;;;;;;0.50;0.50;;;-0.60;99.90;;;;;;5132111;27;20455;-73
2022/01/15 01:56:43;;;;;;;3.25;0.80;;;-0.60;99.90;;;;;;5132663;27;20822;-71
2022/01/15 01:59:09;;;;;;;0.40;0.40;;;-0.70;99.90;;;;;;5131961;27;20379;-71
2022/01/15 02:01:35;;;;;;;0.50;0.50;;;-0.90;99.90;;;;;;5132003;27;20456;-71
2022/01/15 02:04:02;;;;;;;0.40;0.30;;;-0.80;99.90;;;;;;5132518;27;20370;-71
2022/01/15 02:06:27;;;;;;;0.40;0.30;;;-0.80;99.90;;;;;;5131916;27;20735;-71
2022/01/15 02:08:55;;;;;;;1.90;0.80;;;-0.80;99.90;;;;;;5132650;27;20371;-71
2022/01/15 02:11:21;;;;;;;0.60;0.60;;;-0.80;99.90;;;;;;5132007;27;20708;-73
2022/01/15 02:13:47;;;;;;;0.70;0.70;;;-0.80;99.90;;;;;;5132169;27;20367;-71
2022/01/15 02:16:14;;;;;;;0.40;0.40;;;-0.80;99.90;;;;;;5132245;27;20410;-71
2022/01/15 02:18:40;;;;;;;1.23;1.08;;;-1.00;99.90;;;;;;5113079;27;20382;-71
2022/01/15 02:23:44;;;;;;;0.47;0.45;;;-1.00;99.90;;;;;;5131676;27;20735;-71
2022/01/15 02:26:13;;;;;;;0.70;0.60;;;-1.20;99.90;;;;;;5131592;27;20399;-71
2022/01/15 02:28:41;;;;;;;0.40;0.40;;;-1.30;99.90;;;;;;5131304;27;20754;-71
2022/01/15 02:31:10;;;;;;;0.55;0.55;;;-1.30;99.90;;;;;;5131962;27;20726;-71
2022/01/15 02:33:37;;;;;;;0.40;0.40;;;-1.30;99.90;;;;;;5131208;27;20383;-73
2022/01/15 02:36:05;;;;;;;0.70;0.70;;;-1.20;99.90;;;;;;5132034;27;20587;-71
2022/01/15 02:38:31;;;;;;;0.40;0.20;;;-1.40;99.90;;;;;;5131917;27;20453;-71
2022/01/15 02:40:57;;;;;;;0.50;0.50;;;-1.40;99.90;;;;;;5131614;27;21050;-71
2022/01/15 02:43:32;;;;;;;0.98;0.98;;;-1.50;99.90;;;;;;5131553;27;20857;-71
2022/01/15 02:46:34;;;;;;;0.73;0.73;;;-1.50;99.90;;;;;;5110256;28;20386;-71
2022/01/15 02:49:05;;;;;;;0.40;0.30;;;-1.50;99.90;;;;;;5110527;28;20429;-71
2022/01/15 02:51:34;;;;;;;1.10;0.70;;;-1.40;99.90;;;;;;5111232;28;20372;-72
2022/01/15 02:54:00;;;;;;;0.40;0.20;;;-1.30;99.90;;;;;;5110141;28;20421;-71
2022/01/15 02:56:33;;;;;;;0.40;0.30;;;-1.60;99.90;;;;;;5111354;28;20387;-71
2022/01/15 02:59:00;;;;;;;0.40;0.20;;;-1.50;99.90;;;;;;5110082;28;20368;-71
2022/01/15 03:01:26;;;;;;;1.60;1.30;;;-1.40;99.90;;;;;;5092538;28;20458;-72
2022/01/15 03:03:52;;;;;;;0.40;0.30;;;-1.50;99.90;;;;;;5110471;28;20376;-72
2022/01/15 03:06:19;;;;;;;0.70;0.70;;;-1.50;99.90;;;;;;5110525;28;20384;-71
2022/01/15 03:08:47;;;;;;;0.70;0.70;;;-1.50;99.90;;;;;;5110839;28;20408;-71
2022/01/15 03:11:13;;;;;;;2.10;0.80;;;-1.50;99.90;;;;;;5109372;28;20482;-71
2022/01/15 03:13:40;;;;;;;0.60;0.60;;;-1.40;99.90;;;;;;5110800;28;20782;-71
2022/01/15 03:16:07;;;;;;;0.50;0.30;;;-1.40;99.90;;;;;;5110295;28;20396;-71
2022/01/15 03:18:33;;;;;;;1.25;1.25;;;-1.40;99.90;;;;;;5110619;28;20408;-71
2022/01/15 03:20:59;;;;;;;1.50;1.20;;;-1.40;99.90;;;;;;5110895;28;20698;-71
2022/01/15 03:23:24;;;;;;;0.40;0.20;;;-1.50;99.90;;;;;;5110320;28;20725;-71
2022/01/15 03:25:50;;;;;;;1.20;0.80;;;-1.40;99.90;;;;;;5110665;28;20400;-71
2022/01/15 03:28:16;;;;;;;0.40;0.30;;;-1.40;99.90;;;;;;5091689;28;20381;-71
2022/01/15 03:30:42;;;;;;;0.50;0.50;;;-1.30;99.90;;;;;;5110636;28;20377;-71
2022/01/15 03:33:08;;;;;;;0.82;0.82;;;-1.30;99.90;;;;;;5110563;28;20380;-72
2022/01/15 03:35:34;;;;;;;1.50;1.20;;;-1.20;99.90;;;;;;5110376;28;20454;-71
2022/01/15 03:38:00;;;;;;;0.73;0.70;;;-1.20;99.90;;;;;;5110687;28;20377;-71
2022/01/15 03:40:26;;;;;;;0.60;0.60;;;-1.20;99.90;;;;;;5109940;28;20868;-71
2022/01/15 03:42:51;;;;;;;2.47;1.13;;;-1.20;99.90;;;;;;5110726;28;20459;-71
2022/01/15 03:45:17;;;;;;;0.40;0.20;;;-1.20;99.90;;;;;;5125958;28;20738;-71
2022/01/15 03:47:45;;;;;;;0.70;0.70;;;-1.20;99.90;;;;;;5131146;28;20886;-70
2022/01/15 03:50:11;;;;;;;0.40;0.30;;;-1.20;99.90;;;;;;5131219;28;20371;-70
2022/01/15 03:52:38;;;;;;;0.70;0.70;;;-1.30;99.90;;;;;;5130226;28;20374;-70
2022/01/15 03:55:06;;;;;;;0.40;0.40;;;-1.10;99.90;;;;;;5131037;28;20523;-70
2022/01/15 03:57:32;;;;;;;0.80;0.80;;;-1.10;99.90;;;;;;5130282;28;20390;-70
2022/01/15 03:59:58;;;;;;;0.60;0.60;;;-1.20;99.90;;;;;;5130947;28;20378;-70
2022/01/15 04:02:24;;;;;;;0.40;0.30;;;-1.20;99.90;;;;;;5130613;28;20386;-72
2022/01/15 04:04:50;;;;;;;0.40;0.20;;;-1.30;99.90;;;;;;5131099;28;20418;-70
2022/01/15 04:07:15;;;;;;;0.40;0.30;;;-1.40;99.90;;;;;;5131439;28;20414;-71
2022/01/15 04:09:41;;;;;;;0.40;0.20;;;-1.50;99.90;;;;;;5130223;28;20390;-71
2022/01/15 04:12:07;;;;;;;0.60;0.60;;;-1.50;99.90;;;;;;5131083;28;20410;-71
2022/01/15 04:14:33;;;;;;;0.40;0.40;;;-1.40;99.90;;;;;;5130206;28;20407;-73
2022/01/15 04:16:58;;;;;;;0.40;0.40;;;-1.40;99.90;;;;;;5130715;28;20379;-69
2022/01/15 04:19:25;;;;;;;0.70;0.70;;;-1.40;99.90;;;;;;5130928;28;20740;-71
2022/01/15 04:21:51;;;;;;;0.40;0.20;;;-1.50;99.90;;;;;;5130053;27;20378;-71
2022/01/15 04:24:17;;;;;;;0.40;0.20;;;-1.40;99.90;;;;;;5134546;27;20375;-71
2022/01/15 04:26:43;;;;;;;0.40;0.30;;;-1.40;99.90;;;;;;5134188;27;20477;-71
2022/01/15 04:29:09;;;;;;;0.40;0.30;;;-1.40;99.90;;;;;;5134541;27;20461;-71
2022/01/15 04:31:51;;;;;;;0.40;0.30;;;-1.30;99.90;;;;;;5134765;27;20374;-69
2022/01/15 04:34:28;;;;;;;0.40;0.30;;;-1.30;99.90;;;;;;5134902;27;20410;-71
2022/01/15 04:37:01;;;;;;;7.20;1.10;;;-1.40;99.90;;;;;;5133525;27;20395;-71
2022/01/15 04:39:27;;;;;;;0.40;0.40;;;-1.40;99.90;;;;;;5134291;27;20873;-68
2022/01/15 04:41:53;;;;;;;0.43;0.43;;;-1.30;99.90;;;;;;5133787;27;20427;-70
2022/01/15 04:44:19;;;;;;;0.50;0.40;;;-1.20;99.90;;;;;;5126376;27;20392;-69
2022/01/15 04:46:44;;;;;;;0.40;0.30;;;-1.20;99.90;;;;;;5113943;28;20483;-70
2022/01/15 04:49:10;;;;;;;0.60;0.60;;;-1.10;99.90;;;;;;5112828;28;20628;-70
2022/01/15 04:51:36;;;;;;;0.40;0.20;;;-1.10;99.90;;;;;;5113803;28;20836;-70
2022/01/15 04:54:04;;;;;;;0.40;0.20;;;-1.10;99.90;;;;;;5094794;28;20385;-70
2022/01/15 04:56:30;;;;;;;0.40;0.40;;;-1.10;99.90;;;;;;5095360;28;20384;-70
2022/01/15 04:58:56;;;;;;;0.40;0.20;;;-1.10;99.90;;;;;;5113574;28;20372;-69
2022/01/15 05:01:22;;;;;;;0.40;0.20;;;-1.20;99.90;;;;;;5113051;28;20407;-69
2022/01/15 05:03:48;;;;;;;0.40;0.30;;;-1.10;99.90;;;;;;5113795;28;20385;-69
2022/01/15 05:06:13;;;;;;;0.40;0.30;;;-1.20;99.90;;;;;;5112484;28;20392;-70
2022/01/15 05:08:41;;;;;;;0.40;0.30;;;-1.10;99.90;;;;;;5113405;28;20464;-70
2022/01/15 05:11:14;;;;;;;1.98;1.35;;;-1.10;99.90;;;;;;5112914;28;20372;-71
2022/01/15 05:13:40;;;;;;;0.40;0.32;;;-1.00;99.90;;;;;;5113341;28;20387;-70
2022/01/15 05:16:07;;;;;;;0.50;0.50;;;-1.20;99.90;;;;;;5095126;28;20401;-70
2022/01/15 05:18:32;;;;;;;0.40;0.30;;;-1.20;99.90;;;;;;5112626;28;20379;-70
2022/01/15 05:20:58;;;;;;;0.70;0.70;;;-1.10;99.90;;;;;;5113320;28;20372;-69
2022/01/15 05:23:24;;;;;;;0.40;0.20;;;-1.10;99.90;;;;;;5112089;28;20464;-70
2022/01/15 05:25:50;;;;;;;0.40;0.40;;;-1.00;99.90;;;;;;5112978;28;20403;-70
2022/01/15 05:28:15;;;;;;;0.80;0.80;;;-1.00;99.90;;;;;;5112873;28;20404;-69
2022/01/15 05:30:41;;;;;;;0.40;0.30;;;-1.30;99.90;;;;;;5094130;28;20365;-70
2022/01/15 05:33:06;;;;;;;0.90;0.57;;;-1.20;99.90;;;;;;5112845;28;20456;-69
2022/01/15 05:35:32;;;;;;;0.40;0.20;;;-1.40;99.90;;;;;;5111096;28;20423;-70
2022/01/15 05:37:59;;;;;;;0.55;0.55;;;-1.40;99.90;;;;;;5112902;28;20404;-69
2022/01/15 05:40:26;;;;;;;0.40;0.25;;;-1.40;99.90;;;;;;5094114;28;20873;-71
2022/01/15 05:42:52;;;;;;;0.40;0.30;;;-1.60;99.90;;;;;;5112182;28;20464;-69
2022/01/15 05:45:18;;;;;;;1.30;0.90;;;-1.00;99.90;;;;;;5129405;27;20387;-69
2022/01/15 05:47:44;;;;;;;0.40;0.30;;;-1.60;99.90;;;;;;5132403;27;20370;-69
2022/01/15 05:50:10;;;;;;;0.40;0.20;;;-1.70;99.90;;;;;;5132973;27;20371;-70
2022/01/15 05:52:36;;;;;;;0.40;0.20;;;-1.70;99.90;;;;;;5132410;27;20394;-71
2022/01/15 05:55:03;;;;;;;0.40;0.20;;;-1.70;99.90;;;;;;5133016;27;20753;-70
2022/01/15 05:57:29;;;;;;;0.40;0.20;;;-1.80;99.90;;;;;;5132559;27;20453;-69
2022/01/15 05:59:54;;;;;;;0.40;0.20;;;-1.90;99.90;;;;;;5131824;27;20470;-69
2022/01/15 06:02:21;;;;;;;1.50;0.67;;;-2.10;99.90;;;;;;5132944;27;20421;-69
2022/01/15 06:04:48;;;;;;;0.70;0.50;;;-2.00;99.90;;;;;;5132016;27;20386;-70
2022/01/15 06:07:14;;;;;;;0.40;0.40;;;-2.00;99.90;;;;;;5132473;27;20425;-69
2022/01/15 06:09:40;;;;;;;1.00;0.50;;;-1.80;99.90;;;;;;5132521;27;20391;-69
2022/01/15 06:12:06;;;;;;;0.70;0.70;;;-2.10;99.90;;;;;;5132012;27;20389;-69
2022/01/15 06:14:32;;;;;;;0.40;0.20;;;-2.00;99.90;;;;;;5132263;27;20413;-69
2022/01/15 06:16:58;;;;;;;0.40;0.30;;;-1.90;99.90;;;;;;5131784;27;20390;-70
2022/01/15 06:19:25;;;;;;;0.60;0.60;;;-2.00;99.90;;;;;;5132535;27;20397;-70
2022/01/15 06:21:51;;;;;;;0.60;0.60;;;-2.20;99.90;;;;;;5131992;27;20752;-72
2022/01/15 06:24:16;;;;;;;0.40;0.40;;;-2.10;99.90;;;;;;5132416;27;20472;-70
2022/01/15 06:26:42;;;;;;;0.80;0.70;;;-2.10;99.90;;;;;;5132529;27;20465;-70
2022/01/15 06:29:07;;;;;;;0.40;0.40;;;-2.20;99.90;;;;;;5131464;27;20403;-70
2022/01/15 06:31:33;;;;;;;0.60;0.60;;;-2.10;99.90;;;;;;5132461;27;20491;-69
2022/01/15 06:34:00;;;;;;;0.40;0.20;;;-2.10;99.90;;;;;;5131674;27;20383;-72
2022/01/15 06:36:26;;;;;;;0.40;0.30;;;-2.20;99.90;;;;;;5132084;27;20483;-70
2022/01/15 06:38:52;;;;;;;0.40;0.20;;;-1.90;99.90;;;;;;5132369;27;20467;-69
2022/01/15 06:41:17;;;;;;;0.40;0.20;;;-2.10;99.90;;;;;;5131469;27;20458;-70
2022/01/15 06:43:43;;;;;;;0.40;0.40;;;-2.10;99.90;;;;;;5128590;27;20388;-70
2022/01/15 06:46:09;;;;;;;0.40;0.20;;;-2.40;99.90;;;;;;5110324;28;20951;-70
2022/01/15 06:48:35;;;;;;;0.40;0.22;;;-2.30;99.90;;;;;;5111767;28;20467;-69
2022/01/15 06:51:01;;;;;;;2.20;0.90;;;-2.40;99.90;;;;;;5111243;28;20729;-69
2022/01/15 06:53:26;;;;;;;0.40;0.40;;;-2.20;99.90;;;;;;5110694;28;20897;-69
2022/01/15 06:55:53;;;;;;;0.40;0.20;;;-2.10;99.90;;;;;;5111346;28;20899;-69
2022/01/15 06:58:19;;;;;;;0.40;0.30;;;-2.00;99.90;;;;;;5110631;28;20384;-69
2022/01/15 07:00:45;;;;;;;0.50;0.50;;;-2.20;99.90;;;;;;5111454;28;20373;-69
2022/01/15 07:03:12;;;;;;;0.40;0.20;;;-2.10;99.90;;;;;;5111468;28;20451;-69
2022/01/15 07:05:38;;;;;;;0.40;0.30;;;-2.40;99.90;;;;;;5110785;28;20396;-70
2022/01/15 07:08:04;;;;;;;0.40;0.20;;;-2.40;99.90;;;;;;5111022;28;20372;-70
2022/01/15 07:10:30;;;;;;;0.40;0.20;;;-2.30;99.90;;;;;;5110156;28;20378;-70
2022/01/15 07:12:55;;;;;;;0.40;0.30;;;-2.20;99.90;;;;;;5111271;28;20373;-69
2022/01/15 07:15:21;;;;;;;0.40;0.20;;;-2.50;99.90;;;;;;5092215;28;21029;-71
2022/01/15 07:17:49;;;;;;;0.40;0.20;;;-2.20;99.90;;;;;;5093169;28;20410;-70
2022/01/15 07:20:16;;;;;;;0.40;0.20;;;-2.30;99.90;;;;;;5111284;28;20434;-70
2022/01/15 07:22:42;;;;;;;0.40;0.30;;;-2.30;99.90;;;;;;5129976;28;20885;-69
2022/01/15 07:25:09;;;;;;;0.40;0.20;;;-2.40;99.90;;;;;;5131082;28;20497;-70
2022/01/15 07:27:35;;;;;;;0.40;0.30;;;-2.30;99.90;;;;;;5122137;28;20403;-70
2022/01/15 07:30:02;;;;;;;0.40;0.20;;;-2.20;99.90;;;;;;5095488;28;20385;-70
2022/01/15 07:32:28;;;;;;;0.40;0.40;;;-2.10;99.90;;;;;;5118387;28;20390;-71
2022/01/15 07:34:54;;;;;;;0.40;0.20;;;-1.90;99.90;;;;;;5123789;28;20405;-70
2022/01/15 07:37:19;;;;;;;0.40;0.20;;;-2.10;99.90;;;;;;5122523;28;20739;-70
2022/01/15 07:39:45;;;;;;;0.40;0.20;;;-2.20;99.90;;;;;;5121235;28;20387;-70
2022/01/15 07:42:11;;;;;;;0.40;0.20;;;-2.30;99.90;;;;;;5123579;28;20412;-70
2022/01/15 07:44:36;;;;;;;0.40;0.20;;;-2.20;99.90;;;;;;5120030;28;20935;-72
2022/01/15 07:47:02;;;;;;;0.40;0.40;;;-2.20;99.90;;;;;;5110647;28;20459;-70
2022/01/15 07:49:28;;;;;;;0.40;0.30;;;-2.40;99.90;;;;;;5110646;28;20733;-69
2022/01/15 07:51:54;;;;;;;0.63;0.63;;;-2.10;99.90;;;;;;5096917;28;20450;-70
2022/01/15 07:54:20;;;;;;;0.50;0.50;;;-2.20;99.90;;;;;;5121545;28;20379;-70
2022/01/15 07:56:45;;;;;;;0.40;0.30;;;-2.10;99.90;;;;;;5119743;28;20381;-70
2022/01/15 07:59:11;;;;;;;1.10;0.40;;;-2.00;99.90;;;;;;5125715;27;20461;-70
2022/01/15 08:01:37;;;;;;;1.17;1.17;;;-2.10;99.90;;;;;;5107615;27;20390;-70
2022/01/15 08:04:03;;;;;;;0.40;0.20;;;-2.00;99.90;;;;;;5123079;27;20365;-70
2022/01/15 08:06:29;;;;;;;0.40;0.20;;;-1.80;99.90;;;;;;5123920;27;20418;-70
2022/01/15 08:08:55;;;;;;;0.50;0.50;;;-2.00;99.90;;;;;;5124065;27;20412;-69
2022/01/15 08:11:21;;;;;;;0.40;0.20;;;-1.90;99.90;;;;;;5114177;28;20372;-69
2022/01/15 08:13:46;;;;;;;0.40;0.20;;;-1.90;99.90;;;;;;5118622;27;20375;-69
2022/01/15 08:16:12;;;;;;;0.40;0.22;;;-2.00;99.90;;;;;;5113311;28;20483;-70
2022/01/15 08:18:38;;;;;;;0.40;0.20;;;-1.90;99.90;;;;;;5114616;28;20407;-71
2022/01/15 08:21:05;;;;;;;0.93;0.93;;;-1.90;99.90;;;;;;5113591;28;20403;-70
2022/01/15 08:23:32;;;;;;;1.20;1.10;;;-1.80;99.90;;;;;;5114301;28;20467;-71
2022/01/15 08:25:58;;;;;;;1.80;1.50;;;-1.60;99.90;;;;;;5113365;28;20400;-72
2022/01/15 08:28:25;;;;;;;0.40;0.30;;;-1.60;99.90;;;;;;5113983;28;20380;-71
2022/01/15 08:30:51;;;;;;;0.40;0.20;;;-1.70;99.90;;;;;;5114169;28;20443;-70
2022/01/15 08:33:16;;;;;;;0.50;0.32;;;-1.80;99.90;;;;;;5112994;28;20416;-71
2022/01/15 08:35:42;;;;;;;0.40;0.20;;;-1.60;99.90;;;;;;5094935;28;20444;-71
2022/01/15 08:38:08;;;;;;;1.10;0.60;;;-1.40;99.90;;;;;;5113360;27;20389;-72
2022/01/15 08:40:35;;;;;;;0.40;0.20;;;-1.60;99.90;;;;;;5117212;27;20895;-70
2022/01/15 08:43:01;;;;;;;1.30;0.90;;;-1.50;99.90;;;;;;5116725;27;20376;-70
2022/01/15 08:45:27;;;;;;;0.40;0.20;;;-1.40;99.90;;;;;;5121411;27;20974;-71
2022/01/15 08:47:56;;;;;;;0.80;0.80;;;-1.50;99.90;;;;;;5124594;27;20415;-70
2022/01/15 08:50:23;;;;;;;0.40;0.30;;;-1.20;99.90;;;;;;5119133;27;20391;-70
2022/01/15 08:52:49;;;;;;;0.40;0.20;;;-1.20;99.90;;;;;;5113397;28;20377;-71
2022/01/15 08:55:16;;;;;;;0.40;0.20;;;-1.30;99.90;;;;;;5094591;28;20408;-70
2022/01/15 08:57:42;;;;;;;0.40;0.20;;;-1.40;99.90;;;;;;5117601;27;20400;-70
2022/01/15 09:00:12;;;;;;;1.00;0.90;;;-1.30;99.90;;;;;;5122762;27;20478;-70
2022/01/15 09:02:38;;;;;;;0.40;0.20;;;-1.20;99.90;;;;;;5117245;27;20388;-71
2022/01/15 09:05:05;;;;;;;0.40;0.30;;;-1.30;99.90;;;;;;5120131;27;20375;-71
2022/01/15 09:07:31;;;;;;;2.90;0.90;;;-1.30;99.90;;;;;;5099640;27;20865;-70
2022/01/15 09:09:56;;;;;;;0.40;0.20;;;-1.60;99.90;;;;;;5119092;27;20376;-70
2022/01/15 09:12:22;;;;;;;1.20;1.10;;;-1.40;99.90;;;;;;5104196;27;20440;-72
2022/01/15 09:14:58;;;;;;;0.40;0.40;;;-1.20;99.90;;;;;;5120427;27;20410;-70
2022/01/15 09:17:28;;;;;;;1.00;0.90;;;-1.20;99.90;;;;;;5122715;27;20420;-71
2022/01/15 09:19:54;;;;;;;0.40;0.20;;;-1.40;99.90;;;;;;5119778;27;20429;-70
2022/01/15 09:22:23;;;;;;;1.00;0.60;;;-1.40;99.90;;;;;;5121185;27;20442;-70
2022/01/15 09:24:52;;;;;;;0.40;0.32;;;-1.50;99.90;;;;;;5117068;27;21045;-71
2022/01/15 09:30:15;;;;;;;0.50;0.50;;;-1.30;99.90;;;;;;5091910;27;20433;-70
2022/01/15 09:32:49;;;;;;;0.40;0.20;;;-1.40;99.90;;;;;;5120824;27;20385;-70
2022/01/15 09:35:19;;;;;;;0.57;0.57;;;-1.10;99.90;;;;;;5116264;27;20872;-71
2022/01/15 09:37:47;;;;;;;1.00;0.80;;;-1.30;99.90;;;;;;5122108;27;21087;-70
2022/01/15 09:40:13;;;;;;;0.40;0.30;;;-1.50;99.90;;;;;;5117991;27;20384;-70
2022/01/15 09:42:41;;;;;;;0.40;0.20;;;-1.40;99.90;;;;;;5114514;27;20369;-72
2022/01/15 09:45:08;;;;;;;0.90;0.70;;;-1.50;99.90;;;;;;5119979;27;20378;-71
2022/01/15 09:47:35;;;;;;;0.40;0.40;;;-1.40;99.90;;;;;;5114906;27;20437;-71
2022/01/15 09:50:08;;;;;;;0.60;0.60;;;-1.20;99.90;;;;;;5119894;27;20376;-72
2022/01/15 09:52:34;;;;;;;0.60;0.60;;;-1.50;99.90;;;;;;5119289;27;20403;-70
2022/01/15 09:55:01;;;;;;;0.40;0.30;;;-1.40;99.90;;;;;;5119380;27;20404;-71
2022/01/15 09:57:27;;;;;;;0.57;0.50;;;-1.30;99.90;;;;;;5124356;27;20384;-70
2022/01/15 09:59:53;;;;;;;0.90;0.70;;;-1.20;99.90;;;;;;5117401;27;20403;-70
2022/01/15 10:02:19;;;;;;;0.40;0.20;;;-0.90;99.90;;;;;;5119028;27;20425;-71
2022/01/15 10:04:44;;;;;;;0.60;0.60;;;-1.30;99.90;;;;;;5117753;27;20456;-71
2022/01/15 10:07:22;;;;;;;1.50;1.00;;;-1.30;99.90;;;;;;5119756;27;20515;-71
2022/01/15 10:10:20;;;;;;;0.40;0.20;;;-0.90;99.90;;;;;;5103060;28;20945;-72
2022/01/15 10:12:46;;;;;;;0.40;0.20;;;-1.00;99.90;;;;;;5115250;27;20390;-71
2022/01/15 10:15:36;;;;;;;0.90;0.40;;;-1.40;99.90;;;;;;5118151;27;20996;-71
2022/01/15 10:18:24;;;;;;;0.40;0.30;;;-1.20;99.90;;;;;;5122712;27;20383;-71
2022/01/15 10:21:14;;;;;;;0.60;0.60;;;-1.20;99.90;;;;;;5120333;27;20390;-71
2022/01/15 10:23:56;;;;;;;1.10;1.00;;;-1.20;99.90;;;;;;5121286;27;20416;-71
2022/01/15 10:26:26;;;;;;;0.40;0.20;;;-1.30;99.90;;;;;;5108951;27;20434;-71
2022/01/15 10:29:01;;;;;;;0.40;0.20;;;-1.20;99.90;;;;;;5120722;27;20371;-71
2022/01/15 10:31:46;;;;;;;0.70;0.70;;;-1.20;99.90;;;;;;5111080;28;20498;-71
2022/01/15 10:34:52;;;;;;;0.40;0.20;;;-0.80;99.90;;;;;;5110220;28;20377;-71
2022/01/15 10:37:41;;;;;;;1.20;0.60;;;-0.60;99.90;;;;;;5112948;27;20603;-72
2022/01/15 10:40:12;;;;;;;0.40;0.20;;;-0.70;99.90;;;;;;5119989;27;20433;-70
2022/01/15 10:42:38;;;;;;;0.40;0.38;;;-0.90;99.90;;;;;;5126269;27;20397;-70
2022/01/15 10:45:12;;;;;;;0.40;0.30;;;-0.80;99.90;;;;;;5114467;27;20820;-71
2022/01/15 10:47:48;;;;;;;0.40;0.30;;;-0.50;99.90;;;;;;5115728;27;20385;-71
2022/01/15 10:50:33;;;;;;;0.50;0.50;;;-0.30;99.90;;;;;;5107393;27;20475;-70
2022/01/15 10:53:07;;;;;;;0.70;0.70;;;-0.50;99.90;;;;;;5124957;27;20394;-70
2022/01/15 10:55:34;;;;;;;1.50;0.80;;;-0.60;99.90;;;;;;5131812;27;20449;-73
2022/01/15 10:58:14;;;;;;;0.40;0.40;;;-0.40;99.90;;;;;;5123785;27;20867;-73
2022/01/15 11:00:51;;;;;;;2.90;0.80;;;-0.20;99.90;;;;;;5111861;28;20503;-73
2022/01/15 11:03:22;;;;;;;0.50;0.40;;;-0.20;99.90;;;;;;5110636;28;20446;-73
2022/01/15 11:06:25;;;;;;;0.40;0.30;;;-0.50;99.90;;;;;;5110446;28;20969;-74
2022/01/15 11:08:51;;;;;;;0.60;0.60;;;-0.20;99.90;;;;;;5109994;28;20424;-72
2022/01/15 11:11:19;;;;;;;0.40;0.30;;;0.00;99.90;;;;;;5109352;28;20747;-74
2022/01/15 11:13:46;;;;;;;0.50;0.40;;;0.10;99.90;;;;;;5110505;28;20384;-73
2022/01/15 11:16:16;;;;;;;0.40;0.25;;;0.20;99.90;;;;;;5110815;28;20467;-73
2022/01/15 11:18:49;;;;;;;0.60;0.60;;;0.30;99.90;;;;;;5110837;28;20387;-72
2022/01/15 11:21:18;;;;;;;0.40;0.20;;;0.00;99.90;;;;;;5119808;28;20386;-72
2022/01/15 11:23:44;;;;;;;0.70;0.70;;;-0.10;99.90;;;;;;5130612;28;20407;-72
2022/01/15 11:26:13;;;;;;;0.40;0.30;;;0.30;99.90;;;;;;5131617;28;20401;-72
2022/01/15 11:28:41;;;;;;;0.70;0.70;;;-0.10;99.90;;;;;;5130361;28;20849;-72
2022/01/15 11:31:11;;;;;;;0.70;0.60;;;0.20;99.90;;;;;;5131164;28;20382;-72
2022/01/15 11:33:40;;;;;;;1.08;0.90;;;0.10;99.90;;;;;;5126780;27;20390;-73
2022/01/15 11:36:26;;;;;;;0.40;0.20;;;0.30;99.90;;;;;;5100188;28;20516;-73
2022/01/15 11:38:52;;;;;;;0.40;0.30;;;0.60;99.90;;;;;;5097392;27;20405;-74
2022/01/15 11:44:27;;;;;;;0.40;0.30;;;0.60;99.90;;;;;;5132823;27;20689;-73
2022/01/15 11:47:15;;;;;;;0.70;0.70;;;0.90;99.90;;;;;;5134028;27;20410;-74
2022/01/15 11:49:52;;;;;;;0.60;0.60;;;0.80;99.90;;;;;;5125471;27;20391;-73
2022/01/15 11:52:19;;;;;;;1.20;1.20;;;0.50;99.90;;;;;;5116320;27;20477;-73
2022/01/15 11:54:50;;;;;;;0.40;0.30;;;0.20;99.90;;;;;;5133697;27;20889;-73
2022/01/15 11:57:23;;;;;;;1.50;1.40;;;0.50;99.90;;;;;;5134845;27;20431;-73
2022/01/15 11:59:57;;;;;;;0.70;0.70;;;0.60;99.90;;;;;;5133944;27;20410;-73
2022/01/15 12:02:29;;;;;;;0.60;0.60;;;0.70;99.90;;;;;;5126355;27;20419;-72
2022/01/15 12:05:15;;;;;;;0.47;0.47;;;0.80;99.90;;;;;;5134650;27;20773;-72
2022/01/15 12:07:45;;;;;;;1.02;0.45;;;1.00;99.90;;;;;;5116038;27;20785;-73
2022/01/15 12:10:16;;;;;;;0.40;0.20;;;1.50;99.90;;;;;;5134989;27;20374;-73
2022/01/15 12:12:48;;;;;;;0.40;0.40;;;1.20;99.90;;;;;;5134967;27;20371;-74
2022/01/15 12:15:26;;;;;;;0.80;0.80;;;1.50;99.90;;;;;;5134427;27;20409;-73
2022/01/15 12:18:12;;;;;;;0.40;0.20;;;2.50;99.90;;;;;;5114975;27;20438;-73
2022/01/15 12:20:39;;;;;;;0.40;0.30;;;2.80;99.90;;;;;;5115409;27;20388;-73
2022/01/15 12:23:26;;;;;;;0.40;0.40;;;1.60;99.90;;;;;;5094977;28;20392;-73
2022/01/15 12:25:56;;;;;;;0.40;0.30;;;1.90;99.90;;;;;;5109888;28;20830;-73
2022/01/15 12:28:25;;;;;;;0.40;0.20;;;1.40;99.90;;;;;;5133486;28;20385;-71
2022/01/15 12:30:54;;;;;;;0.80;0.80;;;1.10;99.90;;;;;;5133040;28;20371;-73
2022/01/15 12:33:20;;;;;;;0.40;0.30;;;1.90;99.90;;;;;;5133062;28;20374;-73
2022/01/15 12:35:52;;;;;;;0.80;0.80;;;1.70;99.90;;;;;;5133245;28;20422;-73
2022/01/15 12:38:26;;;;;;;0.40;0.40;;;1.50;99.90;;;;;;5133164;28;20371;-73
2022/01/15 12:41:06;;;;;;;0.60;0.60;;;1.10;99.90;;;;;;5133187;28;20423;-72
2022/01/15 12:43:33;;;;;;;2.10;0.77;;;1.00;99.90;;;;;;5131013;27;20371;-73
2022/01/15 12:46:02;;;;;;;0.50;0.50;;;0.70;99.90;;;;;;5112135;28;20433;-72
2022/01/15 12:48:31;;;;;;;1.00;0.80;;;0.30;99.90;;;;;;5112826;28;20422;-72
2022/01/15 12:51:21;;;;;;;0.40;0.20;;;0.30;99.90;;;;;;5112621;28;20428;-72
2022/01/15 12:53:53;;;;;;;0.40;0.20;;;0.30;99.90;;;;;;5107334;28;20861;-73
2022/01/15 12:56:19;;;;;;;0.40;0.20;;;-0.20;99.90;;;;;;5109743;28;20427;-70
2022/01/15 12:58:49;;;;;;;0.40;0.30;;;-0.20;99.90;;;;;;5119924;28;20446;-70
2022/01/15 13:01:22;;;;;;;0.68;0.65;;;-0.40;99.90;;;;;;5112544;28;20398;-70
2022/01/15 13:03:48;;;;;;;0.40;0.20;;;-0.20;99.90;;;;;;5114536;28;20495;-71
2022/01/15 13:06:14;;;;;;;0.50;0.50;;;0.10;99.90;;;;;;5094256;28;20812;-70
2022/01/15 13:08:49;;;;;;;0.50;0.40;;;-0.30;99.90;;;;;;5113010;28;20381;-70
2022/01/15 13:11:20;;;;;;;0.40;0.40;;;-0.30;99.90;;;;;;5112215;28;20433;-71
2022/01/15 13:13:49;;;;;;;0.40;0.20;;;-0.30;99.90;;;;;;5116904;28;20384;-70
2022/01/15 13:16:20;;;;;;;0.50;0.50;;;-0.30;99.90;;;;;;5118219;28;20978;-69
2022/01/15 13:18:58;;;;;;;0.40;0.40;;;-0.50;99.90;;;;;;5111152;28;20373;-70